Time;durP1;ratioP1;P1;durP2;ratioP2;P2;SDS_P1;SDS_P2;PMS_P1;PMS_P2;Temp;Humidity;BMP_temperature;BMP_pressure;BME280_temperature;BME280_humidity;BME280_pressure;Samples;Min_cycle;Max_cycle;Signal;HPM_P1;HPM_P2
2023/06/03 00:01:24;;;;;;;6.75;4.63;;;17.30;85.00;;;16.12;70.37;100002.31;10107892;28;98192;-83
2023/06/03 00:06:27;;;;;;;5.78;4.18;;;17.10;85.90;;;15.99;71.35;100000.50;10097019;28;97499;-83
2023/06/03 00:11:30;;;;;;;6.07;4.15;;;17.00;86.70;;;15.92;71.99;100013.06;10096012;28;98172;-82
2023/06/03 00:16:33;;;;;;;7.75;4.55;;;16.90;87.40;;;15.81;73.02;100019.06;10107645;28;96820;-83
2023/06/03 00:21:40;;;;;;;7.78;4.63;;;16.70;88.50;;;15.69;73.07;100016.16;10087088;28;96657;-82
2023/06/03 00:26:43;;;;;;;7.13;5.05;;;16.60;89.10;;;15.65;73.36;100017.63;10079035;28;96607;-82
2023/06/03 00:31:47;;;;;;;6.97;4.68;;;16.60;89.60;;;15.60;74.01;100017.38;10109991;28;96916;-82
2023/06/03 00:36:50;;;;;;;6.10;4.75;;;16.60;90.10;;;15.52;74.21;100014.88;10093746;28;96789;-82
2023/06/03 00:41:53;;;;;;;7.47;4.82;;;16.50;90.40;;;15.47;74.93;100023.53;10077271;28;96912;-82
2023/06/03 00:46:56;;;;;;;7.38;4.68;;;16.40;90.70;;;15.48;74.90;100033.22;10081256;28;97794;-82
2023/06/03 00:51:59;;;;;;;10.45;5.13;;;16.50;91.00;;;15.47;75.44;100020.00;10095369;28;96857;-82
2023/06/03 00:57:04;;;;;;;9.90;5.35;;;16.50;91.20;;;15.47;75.48;100036.09;10071434;28;96529;-82
2023/06/03 01:02:07;;;;;;;7.05;4.60;;;16.50;91.50;;;15.41;76.13;100032.41;10054475;28;96734;-82
2023/06/03 01:07:47;;;;;;;9.27;5.43;;;16.40;91.70;;;15.35;76.31;100040.38;10092258;28;97571;-82
2023/06/03 01:13:08;;;;;;;8.23;5.57;;;16.40;92.10;;;15.25;76.34;100036.25;10095210;28;96932;-82
2023/06/03 01:18:12;;;;;;;;;;;16.30;92.50;;;15.20;75.61;100030.69;10102011;28;96541;-82
2023/06/03 01:23:28;;;;;;;10.85;4.88;;;16.20;92.80;;;15.18;75.62;100035.44;10101374;28;97038;-82
2023/06/03 01:28:32;;;;;;;7.15;5.03;;;16.20;92.50;;;15.20;75.30;100029.88;10111097;28;96780;-81
2023/06/03 01:33:36;;;;;;;5.35;4.38;;;16.20;92.70;;;15.11;75.66;100028.38;10115174;28;96640;-81
2023/06/03 01:38:39;;;;;;;9.00;6.22;;;16.20;92.80;;;14.98;75.71;100026.50;10084593;28;96602;-81
2023/06/03 01:43:42;;;;;;;8.13;4.90;;;16.00;93.20;;;14.89;75.83;100038.41;10101131;28;96546;-81
2023/06/03 01:48:46;;;;;;;8.57;4.75;;;16.00;93.40;;;14.82;76.15;100040.25;10099395;28;96957;-81
2023/06/03 01:53:49;;;;;;;7.03;5.13;;;15.90;93.50;;;14.64;77.01;100049.63;10082205;28;96580;-81
2023/06/03 01:58:52;;;;;;;6.15;4.80;;;15.70;93.90;;;14.51;77.68;100054.88;10099876;28;96544;-81
2023/06/03 02:03:54;;;;;;;8.10;5.43;;;15.50;94.30;;;14.45;77.67;100060.97;10060453;28;96690;-81
2023/06/03 02:08:58;;;;;;;8.35;6.18;;;15.50;94.60;;;14.41;77.49;100065.06;10069788;28;96717;-81
2023/06/03 02:14:01;;;;;;;14.20;6.53;;;15.40;94.80;;;14.33;77.22;100070.56;10091602;28;96625;-81
2023/06/03 02:19:18;;;;;;;7.93;4.82;;;15.40;94.90;;;14.28;77.07;100075.69;10086622;28;97364;-81
2023/06/03 02:24:22;;;;;;;8.27;4.55;;;15.30;95.00;;;14.20;76.42;100069.44;10082063;28;98311;-81
2023/06/03 02:29:25;;;;;;;7.03;4.40;;;15.30;95.10;;;14.02;76.81;100071.78;10100552;28;96545;-81
2023/06/03 02:34:28;;;;;;;8.73;5.03;;;15.10;95.20;;;13.96;76.94;100090.41;10091489;28;98554;-82
2023/06/03 02:39:31;;;;;;;7.40;4.80;;;15.00;95.40;;;13.89;76.54;100098.38;10075886;28;97550;-82
2023/06/03 02:44:35;;;;;;;8.32;4.93;;;15.00;95.40;;;13.91;77.17;100109.69;10069881;28;96708;-83
2023/06/03 02:49:38;;;;;;;6.45;4.35;;;14.90;95.50;;;13.85;76.92;100113.13;10106994;28;97454;-82
2023/06/03 02:54:41;;;;;;;8.40;4.68;;;14.90;95.60;;;13.71;76.47;100125.53;10102034;28;96520;-82
2023/06/03 02:59:44;;;;;;;10.07;4.90;;;14.80;95.60;;;13.59;76.41;100127.03;10082501;28;96701;-82
2023/06/03 03:04:47;;;;;;;7.67;4.43;;;14.80;95.60;;;13.55;76.59;100129.25;10113104;28;96562;-82
2023/06/03 03:09:50;;;;;;;8.40;4.82;;;14.70;95.70;;;13.53;77.24;100135.81;10105869;28;96816;-83
2023/06/03 03:14:53;;;;;;;7.70;4.17;;;14.70;95.70;;;13.54;77.11;100148.13;10097697;28;96598;-83
2023/06/03 03:19:56;;;;;;;8.90;4.83;;;14.70;95.80;;;13.47;76.74;100164.06;10096567;28;97673;-82
2023/06/03 03:25:00;;;;;;;7.13;4.07;;;14.60;95.90;;;13.37;77.18;100164.41;10079830;28;96629;-83
2023/06/03 03:30:05;;;;;;;7.77;4.60;;;14.50;96.00;;;13.35;77.20;100170.91;10086240;28;96533;-83
2023/06/03 03:35:40;;;;;;;10.17;5.63;;;14.50;96.20;;;13.37;77.33;100182.22;10079259;28;98271;-82
2023/06/03 03:40:43;;;;;;;7.07;4.13;;;14.50;96.30;;;13.35;77.55;100186.94;10111268;28;98600;-83
2023/06/03 03:45:46;;;;;;;5.67;3.70;;;14.40;96.40;;;13.37;77.61;100198.22;10094271;28;97424;-82
2023/06/03 03:50:52;;;;;;;6.70;3.90;;;14.40;96.60;;;13.37;77.71;100204.44;10095859;28;96627;-82
2023/06/03 03:55:57;;;;;;;8.67;3.97;;;14.50;96.70;;;13.46;77.86;100209.66;10097952;28;96569;-81
2023/06/03 04:01:12;;;;;;;8.03;4.50;;;14.50;96.90;;;13.58;77.83;100213.50;10091475;28;96629;-81
2023/06/03 04:06:36;;;;;;;7.72;4.70;;;14.60;97.10;;;13.71;77.55;100220.84;10097494;28;98038;-81
2023/06/03 04:11:43;;;;;;;9.17;4.07;;;14.70;97.20;;;13.80;77.65;100217.88;10093965;28;96907;-82
2023/06/03 04:17:02;;;;;;;6.97;4.07;;;14.80;97.60;;;13.87;78.42;100213.44;10112119;28;98244;-81
2023/06/03 04:22:12;;;;;;;7.03;3.70;;;14.80;97.70;;;13.97;78.61;100218.44;10102102;28;96603;-81
2023/06/03 04:27:15;;;;;;;6.27;4.17;;;14.90;97.90;;;14.09;78.73;100221.44;10093492;28;96703;-81
2023/06/03 04:32:19;;;;;;;8.20;4.53;;;15.00;98.00;;;14.25;79.00;100225.72;10102521;28;96658;-84
2023/06/03 04:37:23;;;;;;;8.57;4.80;;;15.20;98.20;;;14.43;79.04;100220.75;10072631;28;98639;-83
2023/06/03 04:42:26;;;;;;;10.80;4.95;;;15.40;98.30;;;14.58;78.43;100226.91;10054403;28;96616;-83
2023/06/03 04:47:29;;;;;;;6.10;4.40;;;15.50;98.10;;;14.71;77.26;100232.34;10076313;28;96752;-82
2023/06/03 04:52:32;;;;;;;8.30;5.20;;;15.70;97.80;;;14.88;76.30;100237.41;10057531;28;98525;-83
2023/06/03 04:57:37;;;;;;;11.10;4.30;;;15.90;97.50;;;15.08;75.30;100240.22;10090645;28;97763;-83
2023/06/03 05:02:44;;;;;;;6.53;4.35;;;16.10;97.10;;;15.25;73.89;100234.34;10101331;28;98233;-83
2023/06/03 05:07:47;;;;;;;6.22;4.20;;;16.30;96.60;;;15.42;72.56;100240.22;10102548;28;96688;-83
2023/06/03 05:12:50;;;;;;;6.40;4.30;;;16.50;96.00;;;15.55;69.43;100244.81;10099702;28;97690;-83
2023/06/03 05:17:53;;;;;;;6.60;4.07;;;16.60;95.20;;;15.67;68.50;100245.09;10100367;28;96834;-84
2023/06/03 05:22:56;;;;;;;8.77;3.80;;;16.70;94.70;;;15.79;67.47;100256.91;10093932;28;98571;-83
2023/06/03 05:27:59;;;;;;;6.35;3.72;;;16.80;94.20;;;15.95;67.83;100245.84;10085362;28;99069;-83
2023/06/03 05:33:07;;;;;;;5.22;3.05;;;17.00;94.00;;;16.16;67.53;100258.25;10125607;28;97764;-83
2023/06/03 05:38:10;;;;;;;8.00;4.60;;;17.20;93.80;;;16.35;67.06;100253.13;10106172;28;97152;-87
2023/06/03 05:43:15;;;;;;;8.82;3.95;;;17.40;93.40;;;16.44;65.25;100262.63;10086363;28;98722;-85
2023/06/03 05:48:18;;;;;;;9.45;4.63;;;17.50;92.90;;;16.51;65.54;100271.50;10082167;28;98130;-82
2023/06/03 05:53:24;;;;;;;9.90;4.25;;;17.60;92.70;;;16.46;64.56;100274.81;10106205;28;98502;-81
2023/06/03 05:58:27;;;;;;;8.80;4.30;;;17.60;92.10;;;16.52;65.06;100267.78;10122656;28;96755;-81
2023/06/03 06:03:30;;;;;;;7.20;4.10;;;17.60;92.20;;;16.71;64.96;100280.41;10069449;28;96745;-81
2023/06/03 06:08:34;;;;;;;6.82;3.67;;;17.80;92.20;;;16.92;64.42;100274.03;10082370;28;97516;-84
2023/06/03 06:13:37;;;;;;;6.32;4.03;;;18.00;91.90;;;17.05;63.70;100265.13;10096373;28;97644;-84
2023/06/03 06:18:40;;;;;;;6.97;4.05;;;18.10;91.50;;;17.25;61.84;100289.28;10104930;28;96731;-85
2023/06/03 06:23:44;;;;;;;6.78;3.75;;;18.30;91.00;;;17.35;60.05;100285.13;10081076;28;98764;-83
2023/06/03 06:28:47;;;;;;;6.03;3.83;;;18.40;90.40;;;17.47;61.00;100282.63;10092354;28;97948;-84
2023/06/03 06:33:51;;;;;;;5.65;2.88;;;18.50;90.20;;;17.51;58.41;100299.13;10093745;28;96775;-84
2023/06/03 06:38:55;;;;;;;4.60;2.70;;;18.60;88.00;;;17.73;58.81;100297.03;10100082;28;96470;-84
2023/06/03 06:43:58;;;;;;;5.75;3.05;;;18.80;87.80;;;17.87;56.14;100299.47;10094201;28;97284;-87
2023/06/03 06:49:02;;;;;;;7.68;2.80;;;19.00;85.10;;;17.90;54.87;100300.91;10104303;28;96692;-84
2023/06/03 06:54:05;;;;;;;7.13;2.58;;;19.00;83.00;;;18.06;54.97;100310.34;10110675;28;96740;-85
2023/06/03 06:59:08;;;;;;;3.78;2.63;;;19.20;82.50;;;18.19;54.11;100312.97;10111559;28;96775;-85
2023/06/03 07:04:11;;;;;;;4.32;2.20;;;19.30;81.60;;;18.14;51.54;100315.47;10089898;28;97073;-85
2023/06/03 07:09:14;;;;;;;5.32;2.35;;;19.40;79.30;;;18.22;51.63;100322.47;10080815;28;96861;-85
2023/06/03 07:14:18;;;;;;;4.07;2.03;;;19.40;78.30;;;18.23;51.86;100316.88;10072130;28;97640;-84
2023/06/03 07:19:21;;;;;;;3.08;1.90;;;19.40;77.80;;;18.33;51.58;100325.31;10103091;28;97449;-85
2023/06/03 07:24:23;;;;;;;7.68;2.40;;;19.50;77.30;;;18.37;51.83;100326.53;10069216;28;96866;-87
2023/06/03 07:29:36;;;;;;;7.60;2.42;;;19.50;77.00;;;18.46;51.27;100322.53;10096073;28;97743;-87
2023/06/03 07:34:40;;;;;;;3.35;2.05;;;19.70;76.00;;;19.16;50.05;100324.34;10095018;28;98702;-86
2023/06/03 07:39:43;;;;;;;2.88;1.88;;;19.90;76.00;;;19.47;48.31;100321.53;10098086;28;97055;-88
2023/06/03 07:44:49;;;;;;;6.43;2.58;;;20.30;74.80;;;19.31;47.59;100338.28;10085446;28;96573;-86
2023/06/03 07:49:53;;;;;;;3.72;2.10;;;20.30;72.50;;;19.16;46.90;100335.09;10100731;28;97435;-87
2023/06/03 07:54:56;;;;;;;3.42;1.95;;;20.30;71.60;;;18.98;47.75;100347.47;10114759;28;98581;-87
2023/06/03 07:59:59;;;;;;;2.47;1.70;;;20.10;71.40;;;19.03;47.49;100340.63;10145211;28;97341;-87
2023/06/03 08:05:05;;;;;;;5.20;1.67;;;20.20;71.30;;;19.29;48.04;100344.94;10088247;28;96758;-88
2023/06/03 08:10:22;;;;;;;2.85;1.77;;;20.30;71.70;;;19.29;46.85;100351.16;10096695;28;96751;-92
2023/06/03 08:15:28;;;;;;;4.15;2.05;;;20.40;70.20;;;19.30;45.23;100354.66;10080831;28;98298;-92
2023/06/03 08:20:34;;;;;;;4.93;1.80;;;20.50;68.70;;;19.33;45.56;100355.06;10072770;28;96650;-94
2023/06/03 08:25:37;;;;;;;3.97;2.10;;;20.50;68.20;;;19.36;46.58;100356.47;10058116;28;96670;-89
2023/06/03 08:30:40;;;;;;;4.20;1.85;;;20.50;68.80;;;19.49;46.16;100356.34;10075581;28;97243;-88
2023/06/03 08:35:43;;;;;;;6.78;2.22;;;20.60;68.70;;;19.55;45.40;100357.31;10102303;28;96656;-94
2023/06/03 08:40:51;;;;;;;4.65;2.10;;;20.70;68.00;;;19.24;45.61;100361.75;10078940;28;97647;-94
2023/06/03 08:46:26;;;;;;;3.95;1.73;;;20.50;67.60;;;19.06;45.67;100362.53;10100805;28;97400;-93
2023/06/03 08:51:36;;;;;;;2.80;1.73;;;20.30;67.50;;;19.10;45.86;100368.31;10101386;28;96648;-96
2023/06/03 08:56:45;;;;;;;;;;;20.30;67.30;;;19.31;46.70;100367.94;10084867;28;98216;-95
2023/06/03 09:01:55;;;;;;;3.20;1.60;;;20.40;68.10;;;19.57;46.71;100360.63;10080378;28;98272;-92
2023/06/03 09:07:01;;;;;;;4.65;1.77;;;20.60;68.30;;;19.65;45.29;100363.88;10059147;28;98446;-94
2023/06/03 09:12:06;;;;;;;4.35;1.75;;;20.80;67.30;;;19.96;45.37;100362.09;10089919;28;96731;-90
2023/06/03 09:17:09;;;;;;;6.15;2.10;;;21.10;67.20;;;20.16;45.51;100359.19;10080599;28;96694;-93
2023/06/03 09:22:13;;;;;;;3.97;1.90;;;21.20;67.20;;;20.27;44.22;100359.25;10094553;28;97593;-93
2023/06/03 09:27:16;;;;;;;3.72;1.58;;;21.30;66.30;;;20.44;45.41;100356.72;10080352;28;96569;-91
2023/06/03 09:32:20;;;;;;;3.35;1.80;;;21.50;67.20;;;20.58;43.92;100360.09;10095041;28;96623;-94
2023/06/03 09:37:24;;;;;;;7.88;2.22;;;21.70;65.90;;;20.69;43.37;100361.16;10146532;28;96526;-91
2023/06/03 09:42:45;;;;;;;4.00;1.95;;;21.80;65.40;;;20.77;44.20;100350.88;10104863;28;96559;-91
2023/06/03 09:47:48;;;;;;;2.72;1.70;;;21.90;65.30;;;20.91;42.87;100347.97;10099448;28;96757;-92
2023/06/03 09:52:51;;;;;;;3.25;1.80;;;22.00;64.10;;;20.91;41.57;100347.97;10090788;28;97756;-91
2023/06/03 09:58:08;;;;;;;2.88;1.67;;;22.10;62.90;;;21.08;41.90;100344.34;10086769;28;96987;-90
2023/06/03 10:03:11;;;;;;;2.55;1.60;;;22.20;63.10;;;21.11;41.34;100343.03;10088827;28;98508;-91
2023/06/03 10:08:26;;;;;;;6.82;1.80;;;22.30;62.10;;;21.22;40.54;100336.84;10076124;28;96932;-92
2023/06/03 10:13:29;;;;;;;2.47;1.65;;;22.40;61.80;;;21.43;41.74;100340.88;10097854;28;96637;-91
2023/06/03 10:18:37;;;;;;;3.20;1.52;;;22.50;62.10;;;21.81;40.34;100337.66;10071403;28;98252;-91
2023/06/03 10:23:42;;;;;;;4.05;1.83;;;22.90;61.20;;;21.85;38.35;100338.81;10095377;28;96734;-90
2023/06/03 10:28:48;;;;;;;5.53;2.28;;;23.10;59.20;;;21.94;37.76;100330.31;10080983;28;98712;-90
2023/06/03 10:33:53;;;;;;;6.80;2.90;;;23.10;58.80;;;21.78;37.80;100329.19;10083892;28;97890;-90
2023/06/03 10:38:56;;;;;;;3.55;2.38;;;23.00;57.70;;;21.82;38.08;100338.47;10061685;28;96602;-91
2023/06/03 10:43:59;;;;;;;3.92;2.00;;;23.00;57.90;;;22.20;38.76;100327.09;10067680;28;98122;-92
2023/06/03 10:49:06;;;;;;;5.43;2.22;;;23.30;58.20;;;22.25;37.13;100337.19;10080628;28;96763;-93
2023/06/03 10:54:42;;;;;;;4.88;2.25;;;23.50;56.80;;;22.18;36.49;100330.03;10109112;28;96762;-91
2023/06/03 10:59:48;;;;;;;12.25;6.20;;;23.40;56.50;;;22.22;35.83;100326.88;10094835;28;97000;-90
2023/06/03 11:05:36;;;;;;;5.30;2.17;;;23.40;55.70;;;22.27;35.52;100326.97;10120134;28;96577;-91
2023/06/03 11:10:42;;;;;;;3.17;1.88;;;23.50;55.40;;;22.20;35.95;100334.41;10112192;28;96805;-93
2023/06/03 11:16:02;;;;;;;4.00;2.58;;;23.40;55.10;;;22.25;35.02;100313.69;10113162;28;98367;-92
2023/06/03 11:21:47;;;;;;;3.42;1.67;;;23.40;54.10;;;22.57;36.15;100319.41;10075416;28;99058;-91
2023/06/03 11:26:50;;;;;;;2.75;2.03;;;23.60;55.20;;;22.68;35.54;100321.22;10108691;28;97909;-92
2023/06/03 11:32:12;;;;;;;5.93;2.17;;;23.80;54.50;;;22.95;35.50;100323.31;10074190;28;96673;-93
2023/06/03 11:37:19;;;;;;;5.95;2.63;;;24.00;54.50;;;23.09;34.98;100315.66;10112993;28;96837;-91
2023/06/03 11:42:23;;;;;;;6.55;2.00;;;24.30;53.80;;;23.24;34.51;100314.03;10128214;28;96667;-93
2023/06/03 11:48:09;;;;;;;2.92;1.70;;;24.40;53.50;;;23.26;33.92;100311.06;10086986;28;97182;-86
2023/06/03 11:53:36;;;;;;;3.83;1.92;;;24.40;53.00;;;23.02;33.46;100299.56;10094320;28;96572;-84
2023/06/03 11:58:40;;;;;;;3.30;1.63;;;24.30;52.30;;;23.00;34.66;100301.72;10056189;28;96825;-82
2023/06/03 12:04:00;;;;;;;4.18;1.58;;;24.30;52.80;;;22.94;34.10;100300.81;10074271;28;96688;-84
2023/06/03 12:09:03;;;;;;;3.72;2.03;;;24.20;52.40;;;23.01;34.25;100286.28;10066928;28;96645;-85
2023/06/03 12:14:11;;;;;;;3.35;1.88;;;24.30;52.60;;;23.28;34.66;100297.28;10091777;28;97351;-83
2023/06/03 12:19:14;;;;;;;3.80;1.60;;;24.50;52.50;;;23.24;34.57;100292.34;10051182;28;98007;-83
2023/06/03 12:24:17;;;;;;;6.03;2.08;;;24.60;51.90;;;23.17;33.52;100290.88;10064051;28;97550;-83
2023/06/03 12:29:21;;;;;;;5.03;2.30;;;24.50;51.20;;;22.93;33.36;100295.66;10073244;28;98783;-83
2023/06/03 12:34:33;;;;;;;3.63;2.17;;;24.60;50.80;;;22.91;33.68;100293.19;10057693;28;96897;-82
2023/06/03 12:39:49;;;;;;;4.60;2.50;;;24.80;50.50;;;23.18;33.78;100290.63;10096260;28;96499;-84
2023/06/03 12:44:52;;;;;;;3.95;2.20;;;25.20;50.60;;;23.50;33.33;100279.94;10068164;28;96715;-84
2023/06/03 12:50:09;;;;;;;3.42;1.67;;;25.60;50.00;;;24.17;32.73;100265.31;10110770;28;96785;-85
2023/06/03 12:55:17;;;;;;;3.78;1.65;;;26.10;50.10;;;24.65;31.38;100262.78;10107009;28;96600;-84
2023/06/03 13:00:22;;;;;;;3.63;2.10;;;26.60;49.00;;;24.82;31.08;100267.00;10076022;28;96661;-84
2023/06/03 13:05:25;;;;;;;2.30;1.80;;;26.90;47.90;;;25.01;30.51;100266.56;10112096;28;98466;-83
2023/06/03 13:10:28;;;;;;;6.13;1.98;;;27.30;47.10;;;25.40;30.75;100258.97;10118954;28;96605;-83
2023/06/03 13:15:32;;;;;;;4.60;2.42;;;27.60;47.30;;;25.47;28.78;100258.72;10078770;28;98038;-84
2023/06/03 13:20:35;;;;;;;4.75;1.98;;;27.60;46.10;;;25.48;29.93;100260.34;10117049;28;97948;-84
2023/06/03 13:25:38;;;;;;;4.13;1.92;;;27.40;46.60;;;25.60;29.11;100248.16;10094386;28;97527;-84
2023/06/03 13:30:41;;;;;;;4.05;2.28;;;27.30;46.40;;;25.62;28.63;100243.28;10100030;28;96700;-86
2023/06/03 13:35:44;;;;;;;3.63;2.30;;;27.10;45.90;;;25.51;29.13;100254.41;10115702;28;98565;-88
2023/06/03 13:40:47;;;;;;;4.35;2.00;;;26.80;46.40;;;25.46;29.53;100252.47;10104107;28;96501;-84
2023/06/03 13:45:51;;;;;;;3.88;2.30;;;26.60;46.80;;;25.14;28.96;100243.59;10087732;28;96659;-86
2023/06/03 13:50:55;;;;;;;6.50;2.92;;;26.40;46.40;;;25.17;30.42;100243.88;10090282;28;97305;-86
2023/06/03 13:55:58;;;;;;;6.18;2.58;;;26.20;47.40;;;25.16;29.33;100236.81;10099264;28;96616;-84
2023/06/03 14:01:02;;;;;;;3.50;2.13;;;26.40;46.90;;;24.85;29.98;100235.78;10062142;28;97752;-85
2023/06/03 14:06:06;;;;;;;3.75;2.28;;;26.10;46.90;;;24.79;31.18;100236.81;10062210;28;96582;-86
2023/06/03 14:11:09;;;;;;;3.08;2.08;;;26.00;47.20;;;24.80;30.74;100230.28;10097457;28;96461;-86
2023/06/03 14:16:13;;;;;;;4.65;2.35;;;26.00;47.60;;;24.79;30.24;100226.75;10114210;28;96665;-84
2023/06/03 14:21:16;;;;;;;3.33;2.13;;;26.00;47.10;;;24.65;31.28;100219.28;10082770;28;96623;-85
2023/06/03 14:26:21;;;;;;;3.38;2.03;;;25.90;47.40;;;24.78;30.86;100227.84;10082234;28;96599;-86
2023/06/03 14:31:25;;;;;;;4.05;2.33;;;26.00;47.40;;;24.83;30.73;100216.19;10094124;28;98584;-85
2023/06/03 14:36:38;;;;;;;2.88;1.90;;;26.10;47.30;;;24.99;30.54;100204.31;10102147;28;97751;-86
2023/06/03 14:41:41;;;;;;;3.17;2.00;;;26.20;47.40;;;24.83;29.06;100206.16;10076929;28;96697;-86
2023/06/03 14:46:45;;;;;;;4.40;2.22;;;26.30;46.20;;;24.80;30.24;100198.50;10097252;28;96815;-87
2023/06/03 14:51:48;;;;;;;2.95;1.75;;;26.20;46.90;;;24.72;28.95;100188.13;10099931;28;96598;-87
2023/06/03 14:56:51;;;;;;;4.47;1.88;;;26.30;45.60;;;24.56;29.49;100197.25;10096803;28;96819;-84
2023/06/03 15:01:54;;;;;;;4.15;1.85;;;26.20;46.00;;;24.36;29.64;100195.19;10113898;28;96997;-88
2023/06/03 15:06:57;;;;;;;4.03;2.10;;;26.20;45.40;;;24.19;29.64;100194.47;10098313;28;96625;-86
2023/06/03 15:12:00;;;;;;;3.72;1.85;;;26.30;45.20;;;24.24;30.91;100192.59;10109832;28;96531;-88
2023/06/03 15:17:04;;;;;;;3.05;1.98;;;26.40;45.90;;;24.86;30.08;100183.03;10082461;28;96664;-87
2023/06/03 15:22:07;;;;;;;2.05;1.48;;;27.10;45.80;;;25.45;29.59;100190.16;10066131;28;97130;-86
2023/06/03 15:27:10;;;;;;;3.85;1.80;;;27.80;45.30;;;26.14;28.03;100170.75;10096501;28;96604;-85
2023/06/03 15:32:13;;;;;;;3.13;1.80;;;28.50;44.80;;;26.52;27.54;100169.44;10080343;28;98359;-87
2023/06/03 15:37:16;;;;;;;3.00;1.90;;;29.00;44.20;;;26.91;28.19;100166.88;10097700;28;96811;-87
2023/06/03 15:42:19;;;;;;;64.38;5.13;;;29.30;44.50;;;27.25;27.78;100163.53;10072871;28;97656;-86
2023/06/03 15:47:22;;;;;;;3.78;1.70;;;29.50;44.40;;;27.50;27.12;100165.34;10091268;28;96742;-86
2023/06/03 15:52:28;;;;;;;4.25;1.60;;;29.60;43.70;;;27.45;26.82;100171.63;10114862;28;96480;-87
2023/06/03 15:57:31;;;;;;;3.38;1.55;;;29.50;43.40;;;27.28;25.62;100157.50;10103177;28;96852;-85
2023/06/03 16:02:35;;;;;;;3.25;2.15;;;29.20;43.20;;;26.97;25.50;100162.25;10080643;28;96651;-84
2023/06/03 16:07:38;;;;;;;2.25;1.52;;;28.80;42.50;;;26.78;26.07;100164.75;10112529;28;96465;-87
2023/06/03 16:12:41;;;;;;;4.78;1.60;;;28.50;42.70;;;26.50;25.97;100163.41;10070261;28;96763;-86
2023/06/03 16:17:44;;;;;;;3.33;1.42;;;27.90;43.00;;;26.21;26.81;100163.16;10095386;28;96878;-86
2023/06/03 16:22:48;;;;;;;3.40;1.63;;;27.30;43.80;;;25.96;27.25;100165.81;10098144;28;96559;-87
2023/06/03 16:27:52;;;;;;;3.92;1.50;;;27.00;43.70;;;25.53;27.00;100170.59;10067846;28;97097;-86
2023/06/03 16:32:55;;;;;;;3.45;1.73;;;26.60;43.50;;;25.27;27.91;100173.22;10079204;28;96669;-86
2023/06/03 16:37:58;;;;;;;2.42;1.52;;;26.40;44.20;;;24.80;28.13;100171.31;10082191;28;96576;-86
2023/06/03 16:43:01;;;;;;;2.60;1.63;;;26.00;44.00;;;24.75;29.04;100187.59;10073485;28;96758;-86
2023/06/03 16:48:04;;;;;;;4.47;1.60;;;25.90;44.90;;;24.75;27.84;100187.59;10084746;28;96824;-86
2023/06/03 16:53:07;;;;;;;4.45;1.55;;;26.00;44.40;;;24.85;29.08;100188.75;10056149;28;96587;-87
2023/06/03 16:58:10;;;;;;;4.18;1.70;;;26.20;44.80;;;24.96;28.01;100187.75;10096037;28;97319;-86
2023/06/03 17:03:14;;;;;;;2.83;1.45;;;26.40;44.30;;;24.60;27.44;100201.09;10102856;28;97333;-87
2023/06/03 17:08:17;;;;;;;5.50;1.40;;;26.20;43.20;;;24.25;28.08;100193.44;10091582;28;97482;-84
2023/06/03 17:13:20;;;;;;;3.92;1.55;;;25.90;43.30;;;24.05;27.57;100194.06;10097919;28;98664;-86
2023/06/03 17:18:23;;;;;;;4.55;1.98;;;25.60;43.10;;;23.90;28.37;100202.84;10122991;28;96789;-86
2023/06/03 17:23:27;;;;;;;5.82;1.73;;;25.40;43.40;;;23.64;28.29;100204.47;10096421;28;97312;-84
2023/06/03 17:28:31;;;;;;;4.22;1.80;;;25.20;43.30;;;23.37;28.53;100198.97;10088302;28;97462;-85
2023/06/03 17:33:34;;;;;;;6.43;1.50;;;24.80;43.40;;;23.02;28.41;100215.56;10100763;28;96817;-85
2023/06/03 17:38:37;;;;;;;2.88;1.30;;;24.40;43.60;;;22.57;29.05;100232.75;10100608;28;96801;-85
2023/06/03 17:43:43;;;;;;;3.45;1.50;;;23.90;44.00;;;22.14;28.94;100234.16;10102334;28;96544;-85
2023/06/03 17:48:46;;;;;;;6.25;1.27;;;23.50;44.20;;;21.88;29.74;100240.94;10080067;28;98113;-85
2023/06/03 17:53:49;;;;;;;5.00;1.08;;;23.10;44.50;;;21.66;30.37;100252.69;10064072;28;96477;-86
2023/06/03 17:58:52;;;;;;;4.70;1.30;;;22.90;45.10;;;21.40;30.53;100251.31;10088448;28;96841;-86
2023/06/03 18:03:56;;;;;;;1.88;1.08;;;22.60;45.30;;;21.18;31.03;100257.31;10089552;28;98608;-85
2023/06/03 18:08:59;;;;;;;5.22;1.27;;;22.30;46.00;;;20.97;33.29;100261.41;10123376;28;96693;-85
2023/06/03 18:14:02;;;;;;;5.28;1.30;;;22.20;47.10;;;20.68;33.75;100270.41;10125885;28;97878;-86
2023/06/03 18:19:06;;;;;;;2.13;1.08;;;21.90;47.90;;;20.35;34.79;100290.63;10069421;28;96597;-86
2023/06/03 18:24:09;;;;;;;3.75;1.80;;;21.60;48.70;;;20.01;35.87;100284.03;10114490;28;98503;-84
2023/06/03 18:29:12;;;;;;;5.05;2.90;;;21.10;49.40;;;19.58;36.88;100290.34;10099771;28;98033;-84
2023/06/03 18:34:18;;;;;;;3.78;1.75;;;20.80;50.50;;;19.23;39.03;100292.75;10068242;28;98661;-85
2023/06/03 18:39:21;;;;;;;2.70;1.60;;;20.40;51.70;;;18.79;39.72;100300.00;10115226;28;97692;-85
2023/06/03 18:44:24;;;;;;;3.97;1.50;;;19.90;52.80;;;18.35;40.96;100309.78;10097818;28;96737;-88
2023/06/03 18:49:27;;;;;;;4.57;1.98;;;19.60;53.80;;;18.05;41.97;100320.28;10100503;28;96677;-88
2023/06/03 18:54:30;;;;;;;5.95;2.47;;;19.20;54.60;;;17.79;42.05;100323.88;10096962;28;96984;-87
2023/06/03 18:59:33;;;;;;;7.95;2.63;;;18.90;54.80;;;17.57;42.27;100335.91;10097666;28;96730;-88
2023/06/03 19:04:41;;;;;;;6.45;2.30;;;18.70;55.40;;;17.29;43.83;100344.22;10116004;28;96686;-88
2023/06/03 19:09:44;;;;;;;3.80;1.75;;;18.40;56.20;;;16.98;44.06;100348.38;10075720;28;96641;-88
2023/06/03 19:14:47;;;;;;;3.63;2.20;;;18.10;56.80;;;16.72;45.20;100359.88;10106515;28;99134;-88
2023/06/03 19:19:50;;;;;;;4.82;1.73;;;17.80;57.50;;;16.43;45.37;100361.03;10112100;28;96703;-88
2023/06/03 19:24:53;;;;;;;4.85;2.15;;;17.60;58.00;;;16.25;46.00;100364.28;10078254;28;98879;-88
2023/06/03 19:29:58;;;;;;;8.77;2.22;;;17.30;58.60;;;16.04;45.98;100361.72;10108618;28;96763;-88
2023/06/03 19:35:03;;;;;;;6.25;1.75;;;17.20;58.90;;;15.89;45.95;100369.06;10096113;28;97674;-88
2023/06/03 19:40:07;;;;;;;7.78;1.73;;;17.00;58.80;;;15.70;46.86;100368.75;10112627;28;96710;-88
2023/06/03 19:45:10;;;;;;;6.65;1.75;;;16.90;59.50;;;15.52;46.96;100371.06;10110169;28;96570;-88
2023/06/03 19:50:14;;;;;;;3.55;1.45;;;16.70;59.70;;;15.42;47.86;100386.69;10109746;28;96631;-88
2023/06/03 19:55:17;;;;;;;5.15;1.80;;;16.50;60.00;;;15.24;48.58;100387.97;10112276;28;98561;-88
2023/06/03 20:00:21;;;;;;;4.38;1.80;;;16.40;60.70;;;15.14;48.72;100392.00;10097114;28;96733;-88
2023/06/03 20:05:25;;;;;;;5.90;1.67;;;16.30;61.00;;;15.06;49.05;100390.28;10085094;28;96792;-88
2023/06/03 20:10:28;;;;;;;4.68;1.70;;;16.20;61.30;;;14.94;49.15;100400.69;10109158;28;96716;-88
2023/06/03 20:15:31;;;;;;;4.13;1.50;;;16.10;61.70;;;14.77;50.06;100395.78;10074078;28;97298;-87
2023/06/03 20:20:35;;;;;;;6.63;2.17;;;15.90;62.40;;;14.56;50.08;100397.38;10095710;28;97200;-87
2023/06/03 20:25:38;;;;;;;5.65;1.80;;;15.70;62.60;;;14.39;50.77;100399.44;10070308;28;96582;-87
2023/06/03 20:30:41;;;;;;;4.10;1.63;;;15.60;63.30;;;14.24;51.44;100405.84;10095667;28;97385;-87
2023/06/03 20:35:44;;;;;;;3.63;1.60;;;15.40;63.90;;;14.11;51.39;100417.19;10081681;28;96556;-87
2023/06/03 20:40:47;;;;;;;4.65;1.30;;;15.30;64.20;;;14.00;52.17;100415.81;10089234;28;96903;-87
2023/06/03 20:45:52;;;;;;;4.30;1.90;;;15.20;64.60;;;13.92;52.91;100423.91;10062023;28;97390;-87
2023/06/03 20:50:56;;;;;;;6.65;1.80;;;15.10;65.00;;;13.80;53.12;100423.53;10112769;28;96637;-87
2023/06/03 20:55:59;;;;;;;4.60;1.98;;;14.90;65.40;;;13.66;54.50;100451.03;10079227;28;98838;-87